Etusivu
METAR-TAF:

METAR-TAF

Lentoasemat :

Elkhart Municipal Airport

Elkhart, Indiana, Yhdysvallat

Leveyspiiri: 41-43N, Pituuspiiri: 086-00W, korkeus merenpinnasta: 237 m

Tämänhetkinen sää

Tämä raportti tehtiin 1 tunti ja 7 minuuttia sitten, kello 16.50 UTC
Tuuli 4 kn pohjoisesta/koillisesta
Lämpötila 20°C
Kosteus 83%
Ilmanpaine 1003 hPa
Näkyvyys: 16.1 km
Hajonneita pilviä 1700 ft:n korkeudessa
Hajonneita pilviä 4900 ft:n korkeudessa

METAR: KEKM 201650Z 02004KT 10SM BKN017 BKN049 20/17 A2962 RMK AO2

Aika: 13:57 (17:57 UTC)


TAF: puuttuu

Säähavainnot ja -ennusteet yli 4000 lentoasemalta (METAR- ja TAF-raportit).

Käytössä olevat sääasemat on merkitty karttaan keltaisilla ja punaisilla pisteillä.

Aseta hiiri pisteen päälle nähdäksesi sääaseman nimen.

Klikkaa sitten nähdäksesi säähavainnot ja -ennusteet.

Kartan vaihtaminen: klikkaa mustalla rastilla varustettuja vihreitä pisteitä, niin voit zoomata sisään; viivalla varustettua vihreää pistettä, niin voit zoomata ulos tai vihreitä nuolia, niin pääset viereisille kartoille.


METAR-TAF: